This demonstration page uses our WeatherBlox Daily Observations layout. Learn more.

41.55636, -103.73856

Hourly Observations for April 26, 2019

Temp ( °F °C ) Dew Point ( °F °C ) Humidity (%) Winds ( mph kmh ) Pressure ( in mb ) Visibility ( mi km ) Precip ( " mm )
12:58 am 00:58 Clear 56 13.4 26 -3.3 31 31 ENE 3 6 30.13 1020 10 16.0934 0 0
1:58 am 01:58 Clear 51 10.7 30 -1.2 44 44 E 7 11 30.14 1021 10 16.0934 0 0
2:58 am 02:58 Clear 47 8.2 32 -0.1 56 56 SE 7 11 30.16 1022 10 16.0934 0 0
3:58 am 03:58 Clear 46 7.6 31 -0.5 57 57 SSE 7 11 30.15 1021 10 16.0934 0 0
4:58 am 04:58 Clear 43 6.1 32 0.1 66 66 ESE 8 13 30.17 1022 10 16.0934 0 0
5:58 am 05:58 Clear 39 3.9 33 0.3 78 78 SE 9 15 30.21 1023 10 16.0934 0 0
6:58 am 06:58 Clear 38 3.6 34 0.9 83 83 SE 13 20 30.21 1023 10 16.0934 0 0
7:58 am 07:58 Clear 38 3.4 33 0.7 83 83 SSE 14 22 30.18 1022 10 16.0934 0 0
8:58 am 08:58 Clear 37 2.6 33 0.3 85 85 S 15 24 30.17 1022 10 16.0934 0 0
9:58 am 09:58 Clear 35 1.9 31 -0.7 83 83 S 16 26 30.06 1018 10 16.0934 0 0
10:58 am 10:58 Clear 34 1.2 30 -1.1 85 85 S 17 28 30.03 1017 10 16.0934 0 0
11:58 am 11:58 Clear 35 1.4 30 -1.1 84 84 S 15 24 30.01 1016 10 16.0934 0 0
1:58 pm 13:58 Sunny 45 7.3 34 1.2 66 66 S 17 28 29.95 1014 10 16.0934 0 0
2:56 pm 14:56 Sunny 49 9.7 35 1.5 57 57 SSW 15 24 29.93 1014 10 16.0934 0 0
3:56 pm 15:56 Sunny 57 13.8 37 2.5 47 47 SW 13 20 29.9 1012 10 16.0934 0 0
4:56 pm 16:56 Sunny 67 19.7 35 1.8 30 30 NW 18 30 29.85 1011 10 16.0934 0 0
5:56 pm 17:56 Sunny 69 20.4 37 2.7 31 31 N 18 30 29.85 1011 10 16.0934 0 0
6:56 pm 18:56 Sunny 69 20.7 38 3.3 32 32 N 14 22 29.8 1009 10 16.0934 0 0
7:56 pm 19:56 Mostly Cloudy 68 20 35 1.5 29 29 NNE 10 17 29.78 1009 10 16.0934 0 0
8:56 pm 20:56 Partly Cloudy with Light Showers 67 19.2 38 3.4 35 35 W 9 15 29.76 1008 10 16.0934 0.01 0.254
9:56 pm 21:56 Mostly Cloudy 58 14.4 42 5.6 56 56 N 31 50 29.79 1009 10 16.0934 0 0
10:56 pm 22:56 Mostly Cloudy 54 12.1 45 7.4 73 73 NE 6 9 29.8 1009 10 16.0934 0.01 0.254
11:58 pm 23:58 Mostly Cloudy 54 12.3 44 6.9 70 70 ENE 5 7 29.8 1009 10 16.0934 0 0

Powered by AerisWeather